Time,TemperatureF,DewpointF,PressureIn,WindDirection,WindDirectionDegrees,WindSpeedMPH,WindSpeedGustMPH,Humidity,HourlyPrecipIn,Conditions,Clouds,dailyrainin,SoftwareType,DateUTC
2013-10-24 00:00:00,43.6,42.3,29.64,West,278,3.0,6.0,95,0.00,OVC,,0.00,WeatherDisplay:10.37,2013-10-24 04:00:00,
2013-10-24 00:05:00,43.7,42.4,29.64,WNW,290,3.0,6.0,95,0.00,OVC,,0.00,WeatherDisplay:10.37,2013-10-24 04:05:00,
2013-10-24 00:10:00,43.9,42.5,29.65,WNW,297,3.0,7.0,95,0.00,OVC,,0.00,WeatherDisplay:10.37,2013-10-24 04:10:00,
2013-10-24 00:15:00,44.0,40.7,29.65,WNW,292,6.0,8.0,88,0.00,OVC,,0.00,WeatherDisplay:10.37,2013-10-24 04:15:00,
2013-10-24 00:20:00,44.1,40.8,29.65,WNW,286,5.0,7.0,88,0.00,OVC,,0.00,WeatherDisplay:10.37,2013-10-24 04:20:00,
2013-10-24 00:25:00,44.1,40.8,29.65,WNW,288,3.0,9.0,88,0.00,OVC,,0.00,WeatherDisplay:10.37,2013-10-24 04:25:00,
2013-10-24 00:30:00,44.1,40.8,29.65,WNW,296,5.0,8.0,88,0.00,OVC,,0.00,WeatherDisplay:10.37,2013-10-24 04:30:00,
2013-10-24 00:40:00,44.1,40.8,29.65,WNW,301,6.0,7.0,88,0.00,OVC,,0.00,WeatherDisplay:10.37,2013-10-24 04:40:00,
2013-10-24 00:50:00,44.0,40.6,29.66,WNW,303,5.0,7.0,88,0.00,OVC,,0.00,WeatherDisplay:10.37,2013-10-24 04:50:00,
2013-10-24 01:00:00,43.8,40.5,29.66,WNW,303,5.0,9.0,88,0.00,OVC,,0.00,WeatherDisplay:10.37,2013-10-24 05:00:00,
2013-10-24 01:05:00,43.7,40.4,29.66,WNW,298,5.0,9.0,88,0.00,OVC,,0.00,WeatherDisplay:10.37,2013-10-24 05:05:00,
2013-10-24 01:10:00,43.6,40.3,29.66,WNW,301,5.0,7.0,88,0.00,OVC,,0.00,WeatherDisplay:10.37,2013-10-24 05:10:00,
2013-10-24 01:20:00,43.3,34.9,29.66,WNW,297,3.0,8.0,72,0.00,BKN,,0.00,WeatherDisplay:10.37,2013-10-24 05:20:00,
2013-10-24 01:30:00,43.1,34.7,29.66,WNW,303,5.0,7.0,72,0.00,BKN,,0.00,WeatherDisplay:10.37,2013-10-24 05:30:00,
2013-10-24 01:40:00,42.8,34.4,29.67,NW,305,5.0,7.0,72,0.00,BKN,,0.00,WeatherDisplay:10.37,2013-10-24 05:40:00,
2013-10-24 01:45:00,42.7,34.3,29.67,WNW,302,5.0,7.0,72,0.00,BKN,,0.00,WeatherDisplay:10.37,2013-10-24 05:45:00,
2013-10-24 01:55:00,42.5,34.1,29.67,NW,304,6.0,7.0,72,0.00,BKN,,0.00,WeatherDisplay:10.37,2013-10-24 05:55:00,
2013-10-24 02:00:00,42.6,34.2,29.67,WNW,303,5.0,7.0,72,0.00,BKN,,0.00,WeatherDisplay:10.37,2013-10-24 06:00:00,
2013-10-24 02:05:00,42.5,33.4,29.67,WNW,299,5.0,7.0,70,0.00,BKN,,0.00,WeatherDisplay:10.37,2013-10-24 06:05:00,
2013-10-24 02:10:00,42.4,33.3,29.67,WNW,296,3.0,9.0,70,0.00,BKN,,0.00,WeatherDisplay:10.37,2013-10-24 06:10:00,
2013-10-24 02:20:00,42.4,33.3,29.67,WNW,297,6.0,7.0,70,0.00,BKN,,0.00,WeatherDisplay:10.37,2013-10-24 06:20:00,
2013-10-24 02:30:00,42.4,33.3,29.68,NW,304,5.0,9.0,70,0.00,BKN,,0.00,WeatherDisplay:10.37,2013-10-24 06:30:00,
2013-10-24 02:40:00,42.4,33.3,29.67,WNW,303,5.0,9.0,70,0.00,BKN,,0.00,WeatherDisplay:10.37,2013-10-24 06:40:00,
2013-10-24 02:50:00,42.3,33.2,29.67,WNW,298,5.0,7.0,70,0.00,BKN,,0.00,WeatherDisplay:10.37,2013-10-24 06:50:00,
2013-10-24 03:00:00,42.2,33.1,29.68,WNW,300,3.0,7.0,70,0.00,BKN,,0.00,WeatherDisplay:10.37,2013-10-24 07:00:00,
2013-10-24 03:05:00,42.1,33.7,29.68,WNW,299,2.0,7.0,72,0.00,SCT,,0.00,WeatherDisplay:10.37,2013-10-24 07:05:00,
2013-10-24 03:10:00,42.0,33.6,29.68,WNW,297,2.0,5.0,72,0.00,SCT,,0.00,WeatherDisplay:10.37,2013-10-24 07:10:00,
2013-10-24 03:20:00,41.8,33.4,29.68,WNW,290,3.0,6.0,72,0.00,RA,,0.01,WeatherDisplay:10.37,2013-10-24 07:20:00,
2013-10-24 03:30:00,41.6,33.2,29.68,WNW,293,3.0,7.0,72,0.00,RA,,0.01,WeatherDisplay:10.37,2013-10-24 07:30:00,
2013-10-24 03:40:00,41.6,33.2,29.68,WNW,299,6.0,8.0,72,0.00,RA,,0.01,WeatherDisplay:10.37,2013-10-24 07:40:00,
2013-10-24 03:50:00,41.6,33.2,29.69,WNW,297,3.0,8.0,72,0.00,RA,,0.01,WeatherDisplay:10.37,2013-10-24 07:50:00,
2013-10-24 04:00:00,41.5,33.2,29.69,WNW,303,3.0,6.0,72,0.00,RA,,0.01,WeatherDisplay:10.37,2013-10-24 08:00:00,
2013-10-24 04:05:00,41.4,32.4,29.70,NW,310,5.0,6.0,70,0.00,RA,,0.01,WeatherDisplay:10.37,2013-10-24 08:05:00,
2013-10-24 04:11:00,41.4,32.3,29.70,NW,309,5.0,6.0,70,0.00,RA,,0.01,WeatherDisplay:10.37,2013-10-24 08:11:00,
2013-10-24 04:20:00,41.3,32.2,29.70,WNW,301,3.0,6.0,70,0.00,RA,,0.01,WeatherDisplay:10.37,2013-10-24 08:20:00,
2013-10-24 04:30:00,41.2,32.2,29.71,WNW,290,1.0,5.0,70,0.00,RA,,0.01,WeatherDisplay:10.37,2013-10-24 08:30:00,
2013-10-24 04:40:00,41.0,32.0,29.71,WNW,298,1.0,5.0,70,0.00,RA,,0.01,WeatherDisplay:10.37,2013-10-24 08:40:00,
2013-10-24 04:50:00,41.0,31.9,29.72,WNW,286,2.0,6.0,70,0.00,RA,,0.01,WeatherDisplay:10.37,2013-10-24 08:50:00,
2013-10-24 05:00:00,40.9,31.9,29.72,WNW,289,3.0,6.0,70,0.00,RA,,0.01,WeatherDisplay:10.37,2013-10-24 09:00:00,
2013-10-24 05:05:00,40.9,33.6,29.73,WNW,291,3.0,6.0,75,0.00,RA,,0.01,WeatherDisplay:10.37,2013-10-24 09:05:00,
2013-10-24 05:10:00,40.9,33.6,29.73,WNW,291,2.0,4.0,75,0.00,RA,,0.01,WeatherDisplay:10.37,2013-10-24 09:10:00,
2013-10-24 05:20:00,40.8,33.5,29.73,NW,307,3.0,5.0,75,0.00,RA,,0.01,WeatherDisplay:10.37,2013-10-24 09:20:00,
2013-10-24 05:30:00,40.6,33.3,29.74,NW,309,2.0,5.0,75,0.00,RA,,0.01,WeatherDisplay:10.37,2013-10-24 09:30:00,
2013-10-24 05:40:00,40.4,33.1,29.74,WNW,301,3.0,6.0,75,0.00,RA,,0.01,WeatherDisplay:10.37,2013-10-24 09:40:00,
2013-10-24 05:50:00,40.3,33.0,29.75,NW,305,2.0,5.0,75,0.00,RA,,0.01,WeatherDisplay:10.37,2013-10-24 09:50:00,
2013-10-24 06:00:00,40.4,33.1,29.75,NW,308,3.0,6.0,75,0.00,RA,,0.01,WeatherDisplay:10.37,2013-10-24 10:00:00,
2013-10-24 06:05:00,40.4,33.1,29.75,NW,309,3.0,6.0,75,0.00,RA,,0.01,WeatherDisplay:10.37,2013-10-24 10:05:00,
2013-10-24 06:10:00,40.3,33.0,29.75,NW,304,5.0,6.0,75,0.00,RA,,0.01,WeatherDisplay:10.37,2013-10-24 10:10:00,
2013-10-24 06:20:00,40.1,32.8,29.76,WNW,297,3.0,5.0,75,0.00,RA,,0.01,WeatherDisplay:10.37,2013-10-24 10:20:00,
2013-10-24 06:30:00,40.0,32.7,29.76,WNW,298,6.0,9.0,75,0.00,RA,,0.01,WeatherDisplay:10.37,2013-10-24 10:30:00,
2013-10-24 06:41:00,39.9,32.6,29.76,WNW,302,6.0,9.0,75,0.00,RA,,0.01,WeatherDisplay:10.37,2013-10-24 10:41:00,
2013-10-24 06:50:00,39.9,32.6,29.77,NW,306,6.0,8.0,75,0.00,RA,,0.01,WeatherDisplay:10.37,2013-10-24 10:50:00,
2013-10-24 07:00:00,39.8,32.5,29.77,WNW,302,5.0,8.0,75,0.00,RA,,0.01,WeatherDisplay:10.37,2013-10-24 11:00:00,
2013-10-24 07:05:00,39.8,33.8,29.78,WNW,302,6.0,7.0,79,0.00,RA,,0.01,WeatherDisplay:10.37,2013-10-24 11:05:00,
2013-10-24 07:10:00,39.8,33.8,29.78,WNW,303,5.0,7.0,79,0.00,RA,,0.01,WeatherDisplay:10.37,2013-10-24 11:10:00,
2013-10-24 07:20:00,40.0,34.0,29.78,NW,306,6.0,8.0,79,0.00,RA,,0.01,WeatherDisplay:10.37,2013-10-24 11:20:00,
2013-10-24 07:30:00,40.5,34.5,29.79,WNW,302,5.0,7.0,79,0.00,RA,,0.01,WeatherDisplay:10.37,2013-10-24 11:30:00,
2013-10-24 07:40:00,40.9,34.9,29.80,NW,305,5.0,8.0,79,0.00,RA,,0.01,WeatherDisplay:10.37,2013-10-24 11:40:00,
2013-10-24 07:50:00,41.5,35.5,29.80,WNW,302,5.0,8.0,79,0.00,RA,,0.01,WeatherDisplay:10.37,2013-10-24 11:50:00,
2013-10-24 08:00:00,42.2,36.2,29.80,NW,307,6.0,9.0,79,0.00,RA,,0.01,WeatherDisplay:10.37,2013-10-24 12:00:00,
2013-10-24 08:05:00,42.6,36.5,29.80,NW,312,7.0,8.0,79,0.00,RA,,0.01,WeatherDisplay:10.37,2013-10-24 12:05:00,
2013-10-24 08:10:00,42.9,36.8,29.81,NW,314,8.0,12.0,79,0.00,RA,,0.01,WeatherDisplay:10.37,2013-10-24 12:10:00,
2013-10-24 08:20:00,43.3,35.9,29.81,NW,307,6.0,12.0,75,0.01,RA,,0.02,WeatherDisplay:10.37,2013-10-24 12:20:00,
2013-10-24 08:30:00,43.9,36.5,29.82,NW,310,7.0,12.0,75,0.00,RA,,0.02,WeatherDisplay:10.37,2013-10-24 12:30:00,
2013-10-24 08:40:00,44.4,37.0,29.82,NW,304,6.0,9.0,75,0.00,RA,,0.02,WeatherDisplay:10.37,2013-10-24 12:40:00,
2013-10-24 08:50:00,44.9,37.5,29.82,NW,306,7.0,12.0,75,0.00,RA,,0.02,WeatherDisplay:10.37,2013-10-24 12:50:00,
2013-10-24 09:00:00,45.5,38.0,29.83,WNW,302,9.0,12.0,75,0.00,RA,,0.02,WeatherDisplay:10.37,2013-10-24 13:00:00,
2013-10-24 09:05:00,45.3,35.0,29.83,NW,304,9.0,14.0,67,0.00,RA,,0.02,WeatherDisplay:10.37,2013-10-24 13:05:00,
2013-10-24 09:15:00,45.8,35.4,29.83,WNW,302,7.0,13.0,67,0.00,RA,,0.02,WeatherDisplay:10.37,2013-10-24 13:15:00,
2013-10-24 09:20:00,46.1,35.7,29.83,NW,311,8.0,16.0,67,0.00,RA,,0.02,WeatherDisplay:10.37,2013-10-24 13:20:00,
2013-10-24 09:30:00,46.6,36.2,29.83,NW,313,7.0,16.0,67,0.00,RA,,0.02,WeatherDisplay:10.37,2013-10-24 13:30:00,
2013-10-24 09:40:00,47.1,36.7,29.84,NW,315,9.0,14.0,67,0.00,RA,,0.02,WeatherDisplay:10.37,2013-10-24 13:40:00,
2013-10-24 09:50:00,47.3,36.9,29.84,NW,307,8.0,20.0,67,0.00,RA,,0.02,WeatherDisplay:10.37,2013-10-24 13:50:00,
2013-10-24 10:00:00,47.4,37.0,29.84,WNW,294,7.0,18.0,67,0.00,RA,,0.02,WeatherDisplay:10.37,2013-10-24 14:00:00,
2013-10-24 10:10:00,48.0,37.6,29.84,NW,315,10.0,16.0,67,0.00,RA,,0.02,WeatherDisplay:10.37,2013-10-24 14:10:00,
2013-10-24 10:20:00,48.3,32.9,29.84,WNW,302,9.0,13.0,55,0.00,RA,,0.02,WeatherDisplay:10.37,2013-10-24 14:20:00,
2013-10-24 10:30:00,48.7,33.2,29.84,NW,317,13.0,17.0,55,0.00,RA,,0.02,WeatherDisplay:10.37,2013-10-24 14:30:00,
2013-10-24 10:40:00,48.8,33.4,29.84,NW,322,8.0,17.0,55,0.00,RA,,0.02,WeatherDisplay:10.37,2013-10-24 14:40:00,
2013-10-24 10:50:00,49.4,33.9,29.84,NW,326,10.0,17.0,55,0.00,RA,,0.02,WeatherDisplay:10.37,2013-10-24 14:50:00,
2013-10-24 11:00:00,49.8,34.3,29.84,NW,318,7.0,14.0,55,0.00,RA,,0.02,WeatherDisplay:10.37,2013-10-24 15:00:00,
2013-10-24 11:05:00,50.2,30.7,29.84,NW,314,6.0,12.0,47,0.00,RA,,0.02,WeatherDisplay:10.37,2013-10-24 15:05:00,
2013-10-24 11:10:00,50.4,30.9,29.84,NW,306,7.0,13.0,47,0.00,RA,,0.02,WeatherDisplay:10.37,2013-10-24 15:10:00,
2013-10-24 11:20:00,50.4,30.9,29.84,NW,305,8.0,15.0,47,0.00,RA,,0.02,WeatherDisplay:10.37,2013-10-24 15:20:00,
2013-10-24 11:30:00,50.3,30.9,29.84,WNW,299,7.0,13.0,47,0.00,RA,,0.02,WeatherDisplay:10.37,2013-10-24 15:30:00,
2013-10-24 11:35:00,50.7,31.2,29.83,WNW,301,5.0,12.0,47,0.00,RA,,0.02,WeatherDisplay:10.37,2013-10-24 15:35:00,
2013-10-24 11:45:00,50.7,31.2,29.83,WNW,302,9.0,15.0,47,0.00,RA,,0.02,WeatherDisplay:10.37,2013-10-24 15:45:00,
2013-10-24 11:50:00,50.6,31.1,29.83,NW,307,12.0,18.0,47,0.01,RA,,0.03,WeatherDisplay:10.37,2013-10-24 15:50:00,
2013-10-24 12:00:00,50.7,31.2,29.82,West,269,6.0,16.0,47,0.00,RA,,0.03,WeatherDisplay:10.37,2013-10-24 16:00:00,
2013-10-24 12:05:00,50.8,31.3,29.82,WNW,288,10.0,16.0,47,0.00,RA,,0.03,WeatherDisplay:10.37,2013-10-24 16:05:00,
2013-10-24 12:10:00,50.2,30.8,29.82,WSW,256,8.0,16.0,47,0.00,RA,,0.03,WeatherDisplay:10.37,2013-10-24 16:10:00,
2013-10-24 12:20:00,50.5,29.9,29.81,West,267,5.0,12.0,45,0.00,RA,,0.03,WeatherDisplay:10.37,2013-10-24 16:20:00,
2013-10-24 12:30:00,51.5,30.9,29.81,WNW,302,10.0,16.0,45,0.00,RA,,0.03,WeatherDisplay:10.37,2013-10-24 16:30:00,
2013-10-24 12:40:00,51.2,30.6,29.81,West,266,8.0,16.0,45,0.00,RA,,0.03,WeatherDisplay:10.37,2013-10-24 16:40:00,
2013-10-24 12:50:00,50.8,30.2,29.81,WNW,285,10.0,16.0,45,0.00,RA,,0.03,WeatherDisplay:10.37,2013-10-24 16:50:00,
2013-10-24 13:00:00,51.6,30.9,29.81,West,267,10.0,23.0,45,0.00,RA,,0.03,WeatherDisplay:10.37,2013-10-24 17:00:00,
2013-10-24 13:05:00,51.9,28.3,29.81,WSW,253,10.0,20.0,40,0.00,RA,,0.03,WeatherDisplay:10.37,2013-10-24 17:05:00,
2013-10-24 13:10:00,52.1,28.4,29.80,WSW,258,6.0,20.0,40,0.00,RA,,0.03,WeatherDisplay:10.37,2013-10-24 17:10:00,
2013-10-24 13:20:00,51.6,28.0,29.80,WNW,287,6.0,15.0,40,0.00,RA,,0.03,WeatherDisplay:10.37,2013-10-24 17:20:00,
2013-10-24 13:30:00,52.3,28.7,29.80,West,276,8.0,13.0,40,0.00,RA,,0.03,WeatherDisplay:10.37,2013-10-24 17:30:00,
2013-10-24 13:41:00,52.5,28.9,29.80,WSW,256,10.0,20.0,40,0.00,RA,,0.03,WeatherDisplay:10.37,2013-10-24 17:41:00,
2013-10-24 13:51:00,52.1,28.4,29.80,WSW,256,9.0,17.0,40,0.00,RA,,0.03,WeatherDisplay:10.37,2013-10-24 17:51:00,
2013-10-24 14:00:00,52.6,28.9,29.80,WSW,257,8.0,14.0,40,0.00,RA,,0.03,WeatherDisplay:10.37,2013-10-24 18:00:00,
2013-10-24 14:05:00,52.7,25.1,29.80,WNW,287,9.0,16.0,34,0.00,RA,,0.03,WeatherDisplay:10.37,2013-10-24 18:05:00,
2013-10-24 14:10:00,53.2,25.5,29.80,WNW,297,5.0,12.0,34,0.00,RA,,0.03,WeatherDisplay:10.37,2013-10-24 18:10:00,
2013-10-24 14:15:00,53.7,26.0,29.79,West,276,13.0,22.0,34,0.00,RA,,0.03,WeatherDisplay:10.37,2013-10-24 18:15:00,
2013-10-24 14:20:00,53.2,25.5,29.79,WNW,290,10.0,22.0,34,0.00,RA,,0.03,WeatherDisplay:10.37,2013-10-24 18:20:00,
2013-10-24 14:30:00,53.2,25.6,29.79,West,265,9.0,16.0,34,0.00,RA,,0.03,WeatherDisplay:10.37,2013-10-24 18:30:00,
2013-10-24 14:40:00,52.6,25.0,29.79,West,275,9.0,20.0,34,0.00,RA,,0.03,WeatherDisplay:10.37,2013-10-24 18:40:00,
2013-10-24 14:50:00,53.4,25.7,29.79,West,259,7.0,16.0,34,0.00,RA,,0.03,WeatherDisplay:10.37,2013-10-24 18:50:00,
2013-10-24 15:00:00,53.3,25.6,29.79,West,271,9.0,17.0,34,0.00,RA,,0.03,WeatherDisplay:10.37,2013-10-24 19:00:00,
2013-10-24 15:05:00,53.6,25.2,29.79,West,266,8.0,15.0,33,0.00,RA,,0.03,WeatherDisplay:10.37,2013-10-24 19:05:00,
2013-10-24 15:10:00,53.7,25.3,29.79,West,272,7.0,16.0,33,0.00,RA,,0.03,WeatherDisplay:10.37,2013-10-24 19:10:00,
2013-10-24 15:20:00,54.0,25.5,29.79,WNW,283,9.0,13.0,33,0.00,RA,,0.03,WeatherDisplay:10.37,2013-10-24 19:20:00,
2013-10-24 15:30:00,54.2,25.7,29.79,WNW,303,12.0,21.0,33,0.00,RA,,0.03,WeatherDisplay:10.37,2013-10-24 19:30:00,
2013-10-24 15:40:00,54.1,25.6,29.80,WNW,288,8.0,16.0,33,0.00,RA,,0.03,WeatherDisplay:10.37,2013-10-24 19:40:00,
2013-10-24 15:50:00,53.9,25.4,29.80,WNW,292,9.0,17.0,33,0.00,RA,,0.03,WeatherDisplay:10.37,2013-10-24 19:50:00,
2013-10-24 16:00:00,53.8,25.3,29.81,West,268,8.0,14.0,33,0.00,RA,,0.03,WeatherDisplay:10.37,2013-10-24 20:00:00,
2013-10-24 16:05:00,54.1,24.9,29.81,West,269,9.0,16.0,32,0.00,RA,,0.03,WeatherDisplay:10.37,2013-10-24 20:05:00,
2013-10-24 16:10:00,54.2,25.0,29.81,West,277,7.0,17.0,32,0.00,RA,,0.03,WeatherDisplay:10.37,2013-10-24 20:10:00,
2013-10-24 16:20:00,53.0,23.9,29.81,West,273,6.0,16.0,32,0.00,RA,,0.03,WeatherDisplay:10.37,2013-10-24 20:20:00,
2013-10-24 16:31:00,53.0,23.9,29.82,WNW,291,8.0,14.0,32,0.00,RA,,0.03,WeatherDisplay:10.37,2013-10-24 20:31:00,
2013-10-24 16:40:00,53.0,23.9,29.82,WNW,303,6.0,14.0,32,0.00,RA,,0.03,WeatherDisplay:10.37,2013-10-24 20:40:00,
2013-10-24 16:50:00,53.0,23.9,29.82,WNW,301,9.0,18.0,32,0.00,RA,,0.03,WeatherDisplay:10.37,2013-10-24 20:50:00,
2013-10-24 17:00:00,52.4,23.4,29.83,NW,304,8.0,15.0,32,0.00,RA,,0.03,WeatherDisplay:10.37,2013-10-24 21:00:00,
2013-10-24 17:05:00,52.2,24.7,29.83,NW,306,8.0,12.0,34,0.00,RA,,0.03,WeatherDisplay:10.37,2013-10-24 21:05:00,
2013-10-24 17:10:00,52.0,24.4,29.83,WNW,302,5.0,13.0,34,0.01,RA,,0.04,WeatherDisplay:10.37,2013-10-24 21:10:00,
2013-10-24 17:20:00,51.3,23.8,29.83,WNW,298,8.0,14.0,34,0.00,RA,,0.04,WeatherDisplay:10.37,2013-10-24 21:20:00,
2013-10-24 17:30:00,50.7,23.3,29.84,WNW,290,5.0,12.0,34,0.00,RA,,0.04,WeatherDisplay:10.37,2013-10-24 21:30:00,
2013-10-24 17:40:00,50.2,22.9,29.84,WNW,282,3.0,8.0,34,0.00,RA,,0.04,WeatherDisplay:10.37,2013-10-24 21:40:00,
2013-10-24 17:50:00,49.7,22.4,29.84,West,269,3.0,6.0,34,0.00,RA,,0.04,WeatherDisplay:10.37,2013-10-24 21:50:00,
2013-10-24 18:00:00,49.3,22.1,29.84,West,281,3.0,6.0,34,0.00,RA,,0.04,WeatherDisplay:10.37,2013-10-24 22:00:00,
2013-10-24 18:05:00,49.0,24.5,29.85,West,274,3.0,6.0,38,0.00,RA,,0.04,WeatherDisplay:10.37,2013-10-24 22:05:00,
2013-10-24 18:10:00,48.7,24.2,29.85,West,269,1.0,3.0,38,0.00,RA,,0.04,WeatherDisplay:10.37,2013-10-24 22:10:00,
2013-10-24 18:20:00,48.2,23.7,29.86,West,269,0.0,2.0,38,0.00,RA,,0.04,WeatherDisplay:10.37,2013-10-24 22:20:00,
2013-10-24 18:30:00,47.4,23.1,29.86,West,269,0.0,2.0,38,0.00,RA,,0.04,WeatherDisplay:10.37,2013-10-24 22:30:00,
2013-10-24 18:40:00,46.2,22.0,29.86,West,269,2.0,3.0,38,0.00,RA,,0.04,WeatherDisplay:10.37,2013-10-24 22:40:00,
2013-10-24 18:50:00,45.2,21.1,29.86,West,268,2.0,4.0,38,0.00,RA,,0.04,WeatherDisplay:10.37,2013-10-24 22:50:00,
2013-10-24 19:00:00,45.3,21.1,29.86,West,267,1.0,3.0,38,0.00,RA,,0.04,WeatherDisplay:10.37,2013-10-24 23:00:00,
2013-10-24 19:05:00,45.5,25.3,29.86,West,266,0.0,4.0,45,0.00,RA,,0.04,WeatherDisplay:10.37,2013-10-24 23:05:00,
2013-10-24 19:10:00,45.6,25.5,29.87,WSW,257,2.0,5.0,45,0.00,RA,,0.04,WeatherDisplay:10.37,2013-10-24 23:10:00,
2013-10-24 19:20:00,45.7,25.5,29.87,WSW,242,1.0,4.0,45,0.00,RA,,0.04,WeatherDisplay:10.37,2013-10-24 23:20:00,
2013-10-24 19:30:00,45.6,25.5,29.88,WSW,242,1.0,3.0,45,0.00,RA,,0.04,WeatherDisplay:10.37,2013-10-24 23:30:00,
2013-10-24 19:40:00,45.4,25.2,29.88,WSW,242,0.0,1.0,45,0.00,RA,,0.04,WeatherDisplay:10.37,2013-10-24 23:40:00,
2013-10-24 19:50:00,44.6,24.5,29.88,WSW,242,1.0,3.0,45,0.00,RA,,0.04,WeatherDisplay:10.37,2013-10-24 23:50:00,
2013-10-24 20:00:00,43.6,23.6,29.88,WSW,242,2.0,3.0,45,0.00,RA,,0.04,WeatherDisplay:10.37,2013-10-25 00:00:00,
2013-10-24 20:05:00,43.3,23.4,29.88,WSW,242,2.0,3.0,45,0.00,RA,,0.04,WeatherDisplay:10.37,2013-10-25 00:05:00,
2013-10-24 20:10:00,43.4,23.5,29.88,WSW,241,1.0,4.0,45,0.00,RA,,0.04,WeatherDisplay:10.37,2013-10-25 00:10:00,
2013-10-24 20:20:00,44.2,24.2,29.88,SW,236,1.0,4.0,45,0.00,RA,,0.04,WeatherDisplay:10.37,2013-10-25 00:20:00,
2013-10-24 20:30:00,44.4,24.4,29.88,WSW,237,0.0,4.0,45,0.00,RA,,0.04,WeatherDisplay:10.37,2013-10-25 00:30:00,
2013-10-24 20:40:00,44.4,24.4,29.88,WSW,237,2.0,5.0,45,0.00,RA,,0.04,WeatherDisplay:10.37,2013-10-25 00:40:00,
2013-10-24 20:50:00,44.4,24.4,29.89,WSW,238,1.0,5.0,45,0.00,RA,,0.04,WeatherDisplay:10.37,2013-10-25 00:50:00,
2013-10-24 21:00:00,44.5,24.5,29.89,WSW,238,2.0,4.0,45,0.00,RA,,0.04,WeatherDisplay:10.37,2013-10-25 01:00:00,
2013-10-24 21:05:00,44.3,30.9,29.89,WSW,238,0.0,4.0,59,0.00,RA,,0.04,WeatherDisplay:10.37,2013-10-25 01:05:00,
2013-10-24 21:10:00,44.2,30.8,29.89,WSW,238,1.0,4.0,59,0.00,RA,,0.04,WeatherDisplay:10.37,2013-10-25 01:10:00,
2013-10-24 21:15:00,44.1,30.7,29.89,WSW,239,2.0,4.0,59,0.00,RA,,0.04,WeatherDisplay:10.37,2013-10-25 01:15:00,
2013-10-24 21:25:00,44.0,30.6,29.90,WSW,241,2.0,6.0,59,0.00,RA,,0.04,WeatherDisplay:10.37,2013-10-25 01:25:00,
2013-10-24 21:30:00,43.9,30.5,29.90,WSW,242,2.0,5.0,59,0.00,RA,,0.04,WeatherDisplay:10.37,2013-10-25 01:30:00,
2013-10-24 21:40:00,43.8,30.4,29.90,WSW,237,1.0,4.0,59,0.00,RA,,0.04,WeatherDisplay:10.37,2013-10-25 01:40:00,
2013-10-24 21:50:00,43.8,30.4,29.90,WSW,252,1.0,4.0,59,0.00,RA,,0.04,WeatherDisplay:10.37,2013-10-25 01:50:00,
2013-10-24 22:00:00,43.7,30.3,29.90,West,259,2.0,5.0,59,0.00,RA,,0.04,WeatherDisplay:10.37,2013-10-25 02:00:00,
2013-10-24 22:05:00,43.7,30.3,29.90,West,268,2.0,6.0,59,0.00,RA,,0.04,WeatherDisplay:10.37,2013-10-25 02:05:00,
2013-10-24 22:10:00,43.7,30.3,29.90,West,266,2.0,4.0,59,0.00,RA,,0.04,WeatherDisplay:10.37,2013-10-25 02:10:00,
2013-10-24 22:20:00,43.4,30.0,29.90,West,271,3.0,7.0,59,0.00,RA,,0.04,WeatherDisplay:10.37,2013-10-25 02:20:00,
2013-10-24 22:30:00,43.4,30.0,29.91,West,278,3.0,6.0,59,0.00,RA,,0.04,WeatherDisplay:10.37,2013-10-25 02:30:00,
2013-10-24 22:40:00,43.4,30.0,29.91,West,270,2.0,5.0,59,0.00,RA,,0.04,WeatherDisplay:10.37,2013-10-25 02:40:00,
2013-10-24 22:50:00,43.2,29.9,29.91,West,272,2.0,4.0,59,0.00,RA,,0.04,WeatherDisplay:10.37,2013-10-25 02:50:00,
2013-10-24 23:00:00,43.0,29.6,29.91,West,274,1.0,4.0,59,0.00,RA,,0.04,WeatherDisplay:10.37,2013-10-25 03:00:00,
2013-10-24 23:05:00,42.8,29.5,29.91,West,274,2.0,4.0,59,0.00,RA,,0.04,WeatherDisplay:10.37,2013-10-25 03:05:00,
2013-10-24 23:10:00,42.6,29.2,29.91,West,274,2.0,4.0,59,0.00,RA,,0.04,WeatherDisplay:10.37,2013-10-25 03:10:00,
2013-10-24 23:15:00,42.3,31.8,29.90,West,278,2.0,5.0,66,0.00,RA,,0.04,WeatherDisplay:10.37,2013-10-25 03:15:00,
2013-10-24 23:25:00,42.1,31.6,29.90,WNW,290,2.0,4.0,66,0.00,RA,,0.04,WeatherDisplay:10.37,2013-10-25 03:25:00,
2013-10-24 23:30:00,42.2,31.6,29.90,WNW,290,2.0,4.0,66,0.00,RA,,0.04,WeatherDisplay:10.37,2013-10-25 03:30:00,
2013-10-24 23:40:00,42.2,31.6,29.90,WNW,286,2.0,4.0,66,0.00,RA,,0.04,WeatherDisplay:10.37,2013-10-25 03:40:00,
2013-10-24 23:50:00,42.2,31.6,29.91,WNW,290,1.0,5.0,66,0.00,RA,,0.04,WeatherDisplay:10.37,2013-10-25 03:50:00,